Time;durP1;ratioP1;P1;durP2;ratioP2;P2;SDS_P1;SDS_P2;PMS_P1;PMS_P2;Temp;Humidity;BMP_temperature;BMP_pressure;BME280_temperature;BME280_humidity;BME280_pressure;Samples;Min_cycle;Max_cycle;Signal;HPM_P1;HPM_P2
2021/05/23 00:02:25;;;;;;;5.68;1.63;;;15.80;61.30;;;;;;6320801;22;20027;-77
2021/05/23 00:04:52;;;;;;;4.75;0.90;;;15.80;61.30;;;;;;6320478;22;20022;-77
2021/05/23 00:07:25;;;;;;;3.35;0.98;;;15.70;61.30;;;;;;6320102;22;20304;-78
2021/05/23 00:09:52;;;;;;;3.95;1.02;;;15.80;61.30;;;;;;6320923;22;20007;-76
2021/05/23 00:12:19;;;;;;;3.95;1.10;;;15.70;61.30;;;;;;6321163;22;20019;-77
2021/05/23 00:14:44;;;;;;;5.03;0.95;;;15.70;61.30;;;;;;6294438;22;20042;-76
2021/05/23 00:17:10;;;;;;;4.95;1.20;;;15.70;61.40;;;;;;6320875;22;20007;-77
2021/05/23 00:19:36;;;;;;;4.85;1.40;;;15.70;61.40;;;;;;6320661;22;20017;-77
2021/05/23 00:22:04;;;;;;;3.50;1.05;;;15.70;61.30;;;;;;6310800;22;20030;-77
2021/05/23 00:24:30;;;;;;;7.22;1.52;;;15.70;61.30;;;;;;6320727;22;20011;-77
2021/05/23 00:26:56;;;;;;;6.07;1.42;;;15.70;61.30;;;;;;6321117;22;20018;-76
2021/05/23 00:29:22;;;;;;;4.50;1.00;;;15.70;61.20;;;;;;6320901;22;20010;-77
2021/05/23 00:31:48;;;;;;;8.15;1.27;;;15.70;61.10;;;;;;6283060;22;20022;-76
2021/05/23 00:34:13;;;;;;;4.38;1.00;;;15.70;61.10;;;;;;6309731;22;20011;-76
2021/05/23 00:36:39;;;;;;;5.85;1.27;;;15.70;61.10;;;;;;6320424;22;20007;-77
2021/05/23 00:39:06;;;;;;;4.45;1.33;;;15.70;61.10;;;;;;6320702;22;20106;-77
2021/05/23 00:41:32;;;;;;;6.72;1.17;;;15.70;61.10;;;;;;6320075;22;20010;-77
2021/05/23 00:43:59;;;;;;;4.18;1.08;;;15.70;61.20;;;;;;6320694;22;20030;-76
2021/05/23 00:46:25;;;;;;;6.28;1.63;;;15.70;61.20;;;;;;6320372;22;20007;-76
2021/05/23 00:48:51;;;;;;;5.53;1.27;;;15.70;61.20;;;;;;6320014;22;20046;-77
2021/05/23 00:51:17;;;;;;;3.75;1.00;;;15.70;61.20;;;;;;6320030;22;20333;-75
2021/05/23 00:53:49;;;;;;;5.22;1.10;;;15.70;61.20;;;;;;6319984;22;20018;-78
2021/05/23 00:56:18;;;;;;;5.13;1.08;;;15.70;61.30;;;;;;6320220;22;20261;-80
2021/05/23 00:58:45;;;;;;;5.55;1.58;;;15.70;61.30;;;;;;6320588;22;20007;-76
2021/05/23 01:01:34;;;;;;;3.90;1.05;;;15.70;61.30;;;;;;6309805;22;20043;-78
2021/05/23 01:04:01;;;;;;;5.38;0.90;;;15.70;61.20;;;;;;6312238;22;20076;-79
2021/05/23 01:06:27;;;;;;;6.10;1.42;;;15.70;61.30;;;;;;6293290;22;20007;-76
2021/05/23 01:08:54;;;;;;;9.75;1.20;;;15.70;61.30;;;;;;6320595;22;20022;-79
2021/05/23 01:11:20;;;;;;;3.75;1.17;;;15.70;61.40;;;;;;6320602;22;20262;-76
2021/05/23 01:13:58;;;;;;;6.00;0.98;;;15.60;61.40;;;;;;6293372;22;20011;-75
2021/05/23 01:16:26;;;;;;;4.13;1.02;;;15.60;61.30;;;;;;6320150;22;20017;-76
2021/05/23 01:19:08;;;;;;;4.70;1.38;;;15.70;61.40;;;;;;6320128;22;20017;-75
2021/05/23 01:21:40;;;;;;;4.00;1.00;;;15.60;61.20;;;;;;6319932;22;20011;-79
2021/05/23 01:24:17;;;;;;;5.43;1.40;;;15.60;61.30;;;;;;6319904;22;20011;-77
2021/05/23 01:26:48;;;;;;;4.65;1.00;;;15.60;61.30;;;;;;6309651;22;20018;-78
2021/05/23 01:29:17;;;;;;;4.70;1.20;;;15.60;62.00;;;;;;6320819;22;20031;-78
2021/05/23 01:31:45;;;;;;;5.53;1.30;;;15.60;61.50;;;;;;6320023;22;20022;-75
2021/05/23 01:34:17;;;;;;;6.10;1.08;;;15.60;61.40;;;;;;6293144;22;20007;-77
2021/05/23 01:36:45;;;;;;;5.70;1.20;;;15.60;61.40;;;;;;6320062;22;20003;-76
2021/05/23 01:39:13;;;;;;;4.85;1.17;;;15.50;61.50;;;;;;6320056;22;20011;-77
2021/05/23 01:41:40;;;;;;;5.65;1.30;;;15.60;61.60;;;;;;6318510;22;20046;-77
2021/05/23 01:44:07;;;;;;;4.60;1.05;;;15.60;61.60;;;;;;6320017;22;20112;-77
2021/05/23 01:46:34;;;;;;;4.13;1.00;;;15.60;61.60;;;;;;6319944;22;20007;-77
2021/05/23 01:49:00;;;;;;;3.90;0.82;;;15.50;61.40;;;;;;6320464;22;20034;-77
2021/05/23 01:51:26;;;;;;;6.07;1.08;;;15.60;61.50;;;;;;6320086;22;20007;-75
2021/05/23 01:53:52;;;;;;;2.95;0.80;;;15.60;61.40;;;;;;6320308;22;20011;-76
2021/05/23 01:56:18;;;;;;;4.43;0.82;;;15.60;61.40;;;;;;6320252;22;20011;-76
2021/05/23 01:58:44;;;;;;;4.70;0.98;;;15.60;61.30;;;;;;6320009;22;20015;-76
2021/05/23 02:01:10;;;;;;;4.28;1.25;;;15.60;61.30;;;;;;6319891;22;20109;-78
2021/05/23 02:03:37;;;;;;;4.75;1.05;;;15.50;61.20;;;;;;6319698;22;20038;-77
2021/05/23 02:06:04;;;;;;;4.88;1.10;;;15.50;61.10;;;;;;6319780;22;20415;-77
2021/05/23 02:08:32;;;;;;;4.35;0.98;;;15.50;61.10;;;;;;6319943;22;20022;-77
2021/05/23 02:11:01;;;;;;;3.95;1.25;;;15.50;61.20;;;;;;6320351;22;20031;-78
2021/05/23 02:13:28;;;;;;;4.55;1.10;;;15.50;61.10;;;;;;6320621;22;20015;-77
2021/05/23 02:15:54;;;;;;;3.10;0.63;;;15.50;61.10;;;;;;6309803;22;20014;-77
2021/05/23 02:18:20;;;;;;;3.13;0.80;;;15.50;61.00;;;;;;6320585;22;20012;-77
2021/05/23 02:20:46;;;;;;;6.45;0.95;;;15.50;61.10;;;;;;6319873;22;20011;-76
2021/05/23 02:23:15;;;;;;;4.13;0.98;;;15.50;61.10;;;;;;6320372;22;20011;-77
2021/05/23 02:25:41;;;;;;;4.82;1.02;;;15.50;61.20;;;;;;6320230;22;20031;-77
2021/05/23 02:28:09;;;;;;;6.32;0.80;;;15.50;61.20;;;;;;6320537;22;20011;-77
2021/05/23 02:30:42;;;;;;;4.63;0.80;;;15.50;61.10;;;;;;6308972;22;20423;-78
2021/05/23 02:33:09;;;;;;;4.30;0.82;;;15.50;61.20;;;;;;6321354;22;20019;-78
2021/05/23 02:35:38;;;;;;;3.53;1.00;;;15.50;61.10;;;;;;6321347;22;20019;-77
2021/05/23 02:38:06;;;;;;;4.97;0.85;;;15.40;61.10;;;;;;6322174;22;20019;-79
2021/05/23 02:40:33;;;;;;;4.18;0.90;;;15.40;61.70;;;;;;6321661;22;20067;-76
2021/05/23 02:43:00;;;;;;;6.57;1.33;;;15.50;61.20;;;;;;6315122;22;20330;-77
2021/05/23 02:45:29;;;;;;;4.03;0.93;;;15.50;61.20;;;;;;6311132;22;20080;-77
2021/05/23 02:47:56;;;;;;;4.43;0.90;;;15.50;61.20;;;;;;6320857;22;20022;-76
2021/05/23 02:50:30;;;;;;;4.85;0.98;;;15.50;61.20;;;;;;6321736;22;20265;-77
2021/05/23 02:52:57;;;;;;;3.40;0.95;;;15.50;61.20;;;;;;6321592;22;20019;-77
2021/05/23 02:55:24;;;;;;;2.45;1.13;;;15.50;61.20;;;;;;6321481;22;20014;-76
2021/05/23 02:57:51;;;;;;;4.82;1.10;;;15.50;61.20;;;;;;6321427;22;20011;-77
2021/05/23 03:00:19;;;;;;;3.83;0.98;;;15.50;61.20;;;;;;6310635;22;20011;-76
2021/05/23 03:02:46;;;;;;;4.03;1.10;;;15.40;61.10;;;;;;6320770;22;20485;-78
2021/05/23 03:05:15;;;;;;;4.57;1.00;;;15.40;61.70;;;;;;6311022;22;20011;-77
2021/05/23 03:07:44;;;;;;;5.25;0.93;;;15.40;61.10;;;;;;6321998;22;20034;-76
2021/05/23 03:10:15;;;;;;;4.45;0.80;;;15.50;61.20;;;;;;6321272;22;20078;-76
2021/05/23 03:12:41;;;;;;;2.50;0.70;;;15.50;61.20;;;;;;6311472;22;20015;-76
2021/05/23 03:15:11;;;;;;;4.97;0.93;;;15.40;61.20;;;;;;6294617;22;20069;-78
2021/05/23 03:17:37;;;;;;;3.78;0.88;;;15.40;61.30;;;;;;6310901;22;20022;-76
2021/05/23 03:20:05;;;;;;;6.45;1.55;;;15.40;61.30;;;;;;6321635;22;20007;-77
2021/05/23 03:22:31;;;;;;;4.47;0.95;;;15.40;61.20;;;;;;6321458;22;20018;-76
2021/05/23 03:24:57;;;;;;;5.70;1.00;;;15.40;61.20;;;;;;6321487;22;20011;-78
2021/05/23 03:27:23;;;;;;;4.32;1.13;;;15.40;61.20;;;;;;6310323;22;20007;-77
2021/05/23 03:29:49;;;;;;;3.58;1.10;;;15.40;61.20;;;;;;6321129;22;20015;-78
2021/05/23 03:32:15;;;;;;;3.72;1.23;;;15.40;61.20;;;;;;6293944;22;20338;-75
2021/05/23 03:34:41;;;;;;;3.55;0.77;;;15.40;61.20;;;;;;6321415;22;20022;-78
2021/05/23 03:37:08;;;;;;;4.45;1.27;;;15.40;61.10;;;;;;6321372;22;20011;-77
2021/05/23 03:39:33;;;;;;;3.22;0.80;;;15.40;61.20;;;;;;6320942;22;20081;-77
2021/05/23 03:41:59;;;;;;;4.95;1.10;;;15.40;61.10;;;;;;6320439;22;20412;-76
2021/05/23 03:44:25;;;;;;;3.20;0.82;;;15.40;61.10;;;;;;6320526;22;20011;-77
2021/05/23 03:46:51;;;;;;;2.33;0.60;;;15.40;61.10;;;;;;6293447;22;20296;-78
2021/05/23 03:49:17;;;;;;;4.80;1.13;;;15.40;61.20;;;;;;6310987;22;20022;-78
2021/05/23 03:51:45;;;;;;;5.13;1.20;;;15.40;61.20;;;;;;6320927;22;20018;-79
2021/05/23 03:54:11;;;;;;;3.08;0.80;;;15.40;61.10;;;;;;6321569;22;20021;-77
2021/05/23 03:56:37;;;;;;;4.30;1.25;;;15.40;61.80;;;;;;6321634;22;20015;-77
2021/05/23 03:59:03;;;;;;;2.78;0.77;;;15.40;61.20;;;;;;6310897;22;20016;-78
2021/05/23 04:01:29;;;;;;;3.83;0.95;;;15.40;61.20;;;;;;6320748;22;20014;-78
2021/05/23 04:03:58;;;;;;;2.45;0.55;;;15.40;61.20;;;;;;6294040;22;20082;-79
2021/05/23 04:06:24;;;;;;;3.47;0.63;;;15.40;61.20;;;;;;6320949;22;20014;-75
2021/05/23 04:08:50;;;;;;;4.00;1.27;;;15.40;61.20;;;;;;6294009;22;20034;-77
2021/05/23 04:11:20;;;;;;;4.88;1.10;;;15.40;61.20;;;;;;6320407;22;20305;-76
2021/05/23 04:13:47;;;;;;;3.70;0.80;;;15.40;61.20;;;;;;6320729;22;20011;-75
2021/05/23 04:16:13;;;;;;;2.33;0.45;;;15.40;61.20;;;;;;6321579;22;20010;-76
2021/05/23 04:18:39;;;;;;;1.92;1.00;;;15.40;61.20;;;;;;6320293;22;20296;-77
2021/05/23 04:21:05;;;;;;;2.58;0.80;;;15.40;61.20;;;;;;6320618;22;20007;-77
2021/05/23 04:23:31;;;;;;;4.05;0.82;;;15.40;61.30;;;;;;6320560;22;20015;-77
2021/05/23 04:25:57;;;;;;;2.83;0.80;;;15.40;61.30;;;;;;6320531;22;20355;-77
2021/05/23 04:28:24;;;;;;;3.55;0.95;;;15.40;61.30;;;;;;6316743;22;20019;-77
2021/05/23 04:30:50;;;;;;;3.38;0.63;;;15.40;61.20;;;;;;6310435;22;20045;-77
2021/05/23 04:33:16;;;;;;;4.35;0.88;;;15.40;61.90;;;;;;6309997;22;20073;-77
2021/05/23 04:35:44;;;;;;;2.67;0.77;;;15.40;61.30;;;;;;6321056;22;20082;-76
2021/05/23 04:38:10;;;;;;;2.42;0.77;;;15.40;61.40;;;;;;6320153;22;20026;-76
2021/05/23 04:40:35;;;;;;;3.53;1.00;;;15.40;61.50;;;;;;6310265;22;20090;-78
2021/05/23 04:43:02;;;;;;;3.28;0.85;;;15.40;61.40;;;;;;6315730;22;20015;-76
2021/05/23 04:45:29;;;;;;;3.45;0.80;;;15.40;61.50;;;;;;6310610;22;20039;-77
2021/05/23 04:47:55;;;;;;;3.10;0.60;;;15.40;61.50;;;;;;6320601;22;20067;-77
2021/05/23 04:50:22;;;;;;;3.65;0.70;;;15.40;61.50;;;;;;6310034;22;20015;-79
2021/05/23 04:52:49;;;;;;;1.60;0.63;;;15.40;61.50;;;;;;6309924;22;20015;-77
2021/05/23 04:55:14;;;;;;;3.35;0.70;;;15.40;62.00;;;;;;6319925;22;20284;-76
2021/05/23 04:57:41;;;;;;;3.38;0.93;;;15.40;61.40;;;;;;6319943;22;20011;-78
2021/05/23 05:00:10;;;;;;;3.40;0.65;;;15.40;61.40;;;;;;6310212;22;20007;-77
2021/05/23 05:02:36;;;;;;;3.40;0.98;;;15.40;61.40;;;;;;6320352;22;20011;-76
2021/05/23 05:05:04;;;;;;;2.38;0.70;;;15.30;61.40;;;;;;6319871;22;20073;-76
2021/05/23 05:07:30;;;;;;;2.63;1.05;;;15.30;61.40;;;;;;6320130;22;20008;-78
2021/05/23 05:09:57;;;;;;;3.63;0.85;;;15.40;61.40;;;;;;6320951;22;20062;-76
2021/05/23 05:12:23;;;;;;;5.05;1.00;;;15.40;61.20;;;;;;6319574;22;20404;-80
2021/05/23 05:14:49;;;;;;;6.20;1.15;;;15.40;60.80;;;;;;6320042;22;20003;-76
2021/05/23 05:17:14;;;;;;;9.65;1.45;;;15.50;60.60;;;;;;6292724;22;20075;-77
2021/05/23 05:19:48;;;;;;;3.70;0.95;;;15.40;60.40;;;;;;6319573;22;20015;-80
2021/05/23 05:22:14;;;;;;;6.70;0.90;;;15.50;60.30;;;;;;6309309;22;20379;-75
2021/05/23 05:24:40;;;;;;;8.05;1.55;;;15.40;60.20;;;;;;6282559;22;20472;-77
2021/05/23 05:27:08;;;;;;;5.40;1.10;;;15.50;60.90;;;;;;6319834;22;20039;-79
2021/05/23 05:29:35;;;;;;;3.80;0.80;;;15.40;61.10;;;;;;6319508;22;20014;-80
2021/05/23 05:32:02;;;;;;;8.45;1.10;;;15.40;61.20;;;;;;6319446;22;20007;-76
2021/05/23 05:34:28;;;;;;;8.35;1.70;;;15.40;61.60;;;;;;6282270;22;20010;-82
2021/05/23 05:36:57;;;;;;;9.40;1.10;;;15.40;61.90;;;;;;6309502;22;20082;-75
2021/05/23 05:39:23;;;;;;;6.30;1.30;;;15.40;62.10;;;;;;6309548;22;20097;-77
2021/05/23 05:41:49;;;;;;;14.05;1.50;;;15.50;62.20;;;;;;6320112;22;20003;-76
2021/05/23 05:44:15;;;;;;;13.00;1.48;;;15.50;62.50;;;;;;6282475;22;20011;-76
2021/05/23 05:46:41;;;;;;;9.63;1.40;;;15.60;61.90;;;;;;6319275;22;20065;-76
2021/05/23 05:49:10;;;;;;;4.45;1.80;;;15.60;61.10;;;;;;6319607;22;20003;-77
2021/05/23 05:51:36;;;;;;;7.72;1.67;;;15.60;60.50;;;;;;6319330;22;20017;-77
2021/05/23 05:54:02;;;;;;;9.90;1.90;;;15.60;60.00;;;;;;6282457;22;20035;-78
2021/05/23 05:56:31;;;;;;;8.40;1.27;;;15.60;59.80;;;;;;6307589;22;20011;-79
2021/05/23 05:58:57;;;;;;;6.57;1.80;;;15.60;59.70;;;;;;6257301;22;20008;-79
2021/05/23 06:01:26;;;;;;;5.78;1.30;;;15.50;59.80;;;;;;6309120;22;20007;-75
2021/05/23 06:04:06;;;;;;;4.97;1.42;;;15.50;59.70;;;;;;6318570;22;20408;-81
2021/05/23 06:06:32;;;;;;;7.70;1.60;;;15.40;59.20;;;;;;6281974;22;20018;-73
2021/05/23 06:08:58;;;;;;;4.43;1.40;;;15.50;59.20;;;;;;6321454;22;20086;-76
2021/05/23 06:11:24;;;;;;;6.18;1.60;;;15.50;59.20;;;;;;6311174;22;20027;-73
2021/05/23 06:13:50;;;;;;;9.82;4.20;;;15.50;59.10;;;;;;6321620;22;20011;-75
2021/05/23 06:16:15;;;;;;;10.82;3.80;;;15.50;59.40;;;;;;6294866;22;20007;-73
2021/05/23 06:18:41;;;;;;;11.50;6.70;;;15.60;59.30;;;;;;6321277;22;20022;-71
2021/05/23 06:21:07;;;;;;;16.27;8.27;;;15.60;59.10;;;;;;6321381;22;20048;-72
2021/05/23 06:23:33;;;;;;;24.08;11.35;;;15.60;59.10;;;;;;6322225;22;20011;-72
2021/05/23 06:25:59;;;;;;;17.17;9.73;;;15.60;59.40;;;;;;6321212;22;20007;-72
2021/05/23 06:28:25;;;;;;;22.45;9.38;;;15.60;59.50;;;;;;6320904;22;20105;-73
2021/05/23 06:30:50;;;;;;;16.30;8.88;;;15.70;59.80;;;;;;6320722;22;20011;-77
2021/05/23 06:33:16;;;;;;;15.98;8.10;;;15.70;60.10;;;;;;6320979;22;20018;-77
2021/05/23 06:35:42;;;;;;;15.70;8.50;;;15.70;60.40;;;;;;6310380;22;20400;-76
2021/05/23 06:38:08;;;;;;;21.15;8.13;;;15.70;60.70;;;;;;6321067;22;20011;-76
2021/05/23 06:40:34;;;;;;;21.80;8.25;;;15.70;61.20;;;;;;6321216;22;20101;-75
2021/05/23 06:42:59;;;;;;;15.02;7.45;;;15.70;61.40;;;;;;6316336;22;20078;-75
2021/05/23 06:45:25;;;;;;;15.50;7.22;;;15.70;61.60;;;;;;6321148;22;20348;-80
2021/05/23 06:47:51;;;;;;;17.58;6.82;;;15.70;61.80;;;;;;6320699;22;20015;-76
2021/05/23 06:50:17;;;;;;;14.63;6.57;;;15.70;62.10;;;;;;6321333;22;20065;-76
2021/05/23 06:52:43;;;;;;;11.32;6.20;;;15.70;62.80;;;;;;6321077;22;20011;-79
2021/05/23 06:55:09;;;;;;;13.82;6.47;;;15.80;62.70;;;;;;6320854;22;20011;-75
2021/05/23 06:57:35;;;;;;;13.20;6.22;;;15.90;62.60;;;;;;6321494;22;20018;-78
2021/05/23 07:00:02;;;;;;;12.07;5.57;;;16.10;62.40;;;;;;6320649;22;20018;-78
2021/05/23 07:02:28;;;;;;;9.30;4.03;;;16.20;62.20;;;;;;6320792;22;20011;-78
2021/05/23 07:04:54;;;;;;;7.78;3.25;;;16.40;62.10;;;;;;6321071;22;20107;-78
2021/05/23 07:07:20;;;;;;;5.65;2.25;;;16.40;60.90;;;;;;6310272;22;20042;-77
2021/05/23 07:09:45;;;;;;;5.03;1.77;;;16.50;60.30;;;;;;6310861;22;20011;-76
2021/05/23 07:12:12;;;;;;;6.68;1.70;;;16.50;59.80;;;;;;6310617;22;20019;-76
2021/05/23 07:14:37;;;;;;;10.63;2.63;;;16.60;59.30;;;;;;6310508;22;20019;-76
2021/05/23 07:17:03;;;;;;;4.93;1.92;;;16.50;59.10;;;;;;6293904;22;20022;-76
2021/05/23 07:19:29;;;;;;;6.40;1.60;;;16.40;59.40;;;;;;6320645;22;20375;-78
2021/05/23 07:21:55;;;;;;;6.70;1.70;;;16.40;59.70;;;;;;6321303;22;20033;-77
2021/05/23 07:24:21;;;;;;;9.75;2.47;;;16.40;59.90;;;;;;6321459;22;20077;-77
2021/05/23 07:26:47;;;;;;;5.45;1.90;;;16.50;59.90;;;;;;6310483;22;20080;-77
2021/05/23 07:29:13;;;;;;;5.80;1.73;;;16.60;59.90;;;;;;6321350;22;20065;-77
2021/05/23 07:31:38;;;;;;;7.13;1.38;;;16.60;59.80;;;;;;6320380;22;20011;-77
2021/05/23 07:34:04;;;;;;;8.38;1.75;;;16.80;59.90;;;;;;6320850;22;20094;-77
2021/05/23 07:36:30;;;;;;;5.60;1.60;;;16.90;59.80;;;;;;6310375;22;20011;-77
2021/05/23 07:38:56;;;;;;;3.45;1.80;;;17.00;59.70;;;;;;6319821;22;20022;-75
2021/05/23 07:41:25;;;;;;;5.90;1.90;;;17.00;59.70;;;;;;6320405;22;20030;-76
2021/05/23 07:43:51;;;;;;;5.22;1.40;;;17.00;59.70;;;;;;6309566;22;20015;-76
2021/05/23 07:46:17;;;;;;;4.78;1.40;;;17.10;60.00;;;;;;6320423;22;20022;-76
2021/05/23 07:48:42;;;;;;;4.05;1.48;;;17.10;60.30;;;;;;6320079;22;20076;-73
2021/05/23 07:51:08;;;;;;;10.63;1.95;;;17.20;60.40;;;;;;6320446;22;20007;-75
2021/05/23 07:53:34;;;;;;;17.50;2.45;;;17.20;59.90;;;;;;6309829;22;20011;-77
2021/05/23 07:56:00;;;;;;;5.47;1.98;;;17.00;60.00;;;;;;6320580;22;20432;-77
2021/05/23 07:58:27;;;;;;;9.75;2.80;;;17.00;60.90;;;;;;6309529;22;20035;-77
2021/05/23 08:00:54;;;;;;;11.60;1.88;;;17.00;60.60;;;;;;6319804;22;20011;-79
2021/05/23 08:03:20;;;;;;;7.57;1.60;;;17.00;61.30;;;;;;6309785;22;20015;-79
2021/05/23 08:05:46;;;;;;;6.45;1.85;;;17.00;61.60;;;;;;6320682;22;20011;-77
2021/05/23 08:08:11;;;;;;;10.13;2.10;;;17.10;61.90;;;;;;6321041;22;20096;-75
2021/05/23 08:10:37;;;;;;;12.77;1.70;;;17.20;62.10;;;;;;6321005;22;20396;-77
2021/05/23 08:13:04;;;;;;;8.60;1.58;;;17.30;61.90;;;;;;6320386;22;20015;-77
2021/05/23 08:15:31;;;;;;;8.77;1.85;;;17.30;61.90;;;;;;6320531;22;20027;-77
2021/05/23 08:17:57;;;;;;;6.03;1.65;;;17.50;61.80;;;;;;6320987;22;20014;-77
2021/05/23 08:20:23;;;;;;;10.18;2.55;;;17.60;61.80;;;;;;6320347;22;20011;-78
2021/05/23 08:22:49;;;;;;;8.95;1.27;;;17.00;59.70;;;;;;6320167;22;20546;-77
2021/05/23 08:25:15;;;;;;;14.05;2.30;;;17.30;62.10;;;;;;6293239;22;20018;-77
2021/05/23 08:27:43;;;;;;;15.80;2.22;;;17.40;62.40;;;;;;6320006;22;20018;-77
2021/05/23 08:30:11;;;;;;;9.05;1.90;;;17.50;62.40;;;;;;6319654;22;20042;-77
2021/05/23 08:32:38;;;;;;;11.38;1.83;;;17.70;62.30;;;;;;6309893;22;20086;-77
2021/05/23 08:35:09;;;;;;;15.00;2.17;;;17.80;62.20;;;;;;6294080;22;20021;-77
2021/05/23 08:37:35;;;;;;;13.00;1.50;;;17.80;62.20;;;;;;6319811;22;20092;-77
2021/05/23 08:40:01;;;;;;;11.05;2.03;;;17.90;62.30;;;;;;6319190;22;20353;-77
2021/05/23 08:42:27;;;;;;;16.80;2.03;;;17.90;62.20;;;;;;6255403;22;20097;-78
2021/05/23 08:44:54;;;;;;;16.35;2.28;;;17.90;62.30;;;;;;6319681;22;20003;-78
2021/05/23 08:47:20;;;;;;;14.70;2.10;;;17.90;62.30;;;;;;6319776;22;20011;-80
2021/05/23 08:49:50;;;;;;;13.30;2.42;;;17.90;62.30;;;;;;6319782;22;20015;-82
2021/05/23 08:52:24;;;;;;;5.53;1.10;;;17.90;62.20;;;;;;6257349;22;20015;-78
2021/05/23 08:55:18;;;;;;;11.07;1.50;;;17.90;62.30;;;;;;6292445;22;20003;-85
2021/05/23 08:57:54;;;;;;;8.13;1.38;;;17.80;62.50;;;;;;6256617;22;20011;-75
2021/05/23 09:00:21;;;;;;;12.00;2.03;;;17.90;62.70;;;;;;6309080;22;20007;-83
2021/05/23 09:02:51;;;;;;;13.93;1.98;;;17.80;62.70;;;;;;6256487;22;20011;-83
2021/05/23 09:05:26;;;;;;;9.57;1.38;;;17.90;63.00;;;;;;6256633;22;20010;-82
2021/05/23 09:07:52;;;;;;;12.73;1.65;;;17.90;63.00;;;;;;6272945;22;20090;-83
2021/05/23 09:10:30;;;;;;;11.25;2.13;;;17.80;63.00;;;;;;6309422;22;20416;-76
2021/05/23 09:12:56;;;;;;;7.03;1.50;;;17.90;63.20;;;;;;6319548;22;20026;-84
2021/05/23 09:15:23;;;;;;;11.10;1.60;;;17.80;63.30;;;;;;6292543;22;20007;-79
2021/05/23 09:18:12;;;;;;;8.55;1.83;;;17.90;63.40;;;;;;6319253;22;20014;-81
2021/05/23 09:20:40;;;;;;;11.38;2.30;;;17.90;63.30;;;;;;6319459;22;20421;-77
2021/05/23 09:23:14;;;;;;;7.25;2.05;;;17.90;63.50;;;;;;6282408;22;20033;-81
2021/05/23 09:25:40;;;;;;;16.30;3.33;;;17.80;63.50;;;;;;6309413;22;20003;-80
2021/05/23 09:28:09;;;;;;;12.90;2.38;;;17.80;64.10;;;;;;6282913;22;20011;-82
2021/05/23 09:30:37;;;;;;;12.50;2.47;;;17.80;64.20;;;;;;6282307;22;20014;-84
2021/05/23 09:33:05;;;;;;;11.70;2.80;;;17.80;64.50;;;;;;6282054;22;20019;-82
2021/05/23 09:35:31;;;;;;;10.57;2.20;;;17.80;65.00;;;;;;6282933;22;20025;-84
2021/05/23 09:38:00;;;;;;;14.38;2.63;;;17.70;65.30;;;;;;6256962;22;20396;-81
2021/05/23 09:40:30;;;;;;;13.98;2.45;;;17.70;65.70;;;;;;6282393;22;20007;-78
2021/05/23 09:42:57;;;;;;;12.40;2.30;;;17.70;65.60;;;;;;6310438;22;20015;-77
2021/05/23 09:45:37;;;;;;;11.15;2.20;;;17.70;65.30;;;;;;6321781;22;20018;-80
2021/05/23 09:48:04;;;;;;;4.82;1.33;;;17.70;65.00;;;;;;6258291;22;20300;-81
2021/05/23 09:50:41;;;;;;;10.02;1.85;;;17.60;64.50;;;;;;6294610;22;20022;-79
2021/05/23 09:53:23;;;;;;;11.38;2.00;;;17.60;64.40;;;;;;6311467;22;20323;-79
2021/05/23 09:55:55;;;;;;;4.72;1.40;;;17.60;64.80;;;;;;6321639;22;20061;-78
2021/05/23 09:58:34;;;;;;;5.05;1.30;;;17.50;64.90;;;;;;6321887;22;20438;-80
2021/05/23 10:01:00;;;;;;;3.78;1.20;;;17.50;65.00;;;;;;6310897;22;20007;-80
2021/05/23 10:03:31;;;;;;;5.47;1.40;;;17.50;65.20;;;;;;6320931;22;20007;-79
2021/05/23 10:05:59;;;;;;;9.57;1.50;;;17.50;65.10;;;;;;6321560;22;20011;-80
2021/05/23 10:08:25;;;;;;;7.93;1.70;;;17.40;65.10;;;;;;6321034;22;20007;-78
2021/05/23 10:10:53;;;;;;;21.60;2.95;;;17.40;65.20;;;;;;6310778;22;20045;-78
2021/05/23 10:13:20;;;;;;;23.60;3.20;;;17.50;65.30;;;;;;6321078;22;20034;-78
2021/05/23 10:15:46;;;;;;;19.52;2.65;;;17.50;65.50;;;;;;6321308;22;20046;-79
2021/05/23 10:18:13;;;;;;;18.30;2.28;;;17.50;65.70;;;;;;6321829;22;20015;-78
2021/05/23 10:20:39;;;;;;;22.17;3.25;;;17.40;65.60;;;;;;6321422;22;20014;-78
2021/05/23 10:23:11;;;;;;;21.52;3.05;;;17.40;65.70;;;;;;6320938;22;20015;-78
2021/05/23 10:25:44;;;;;;;28.98;4.28;;;17.40;65.90;;;;;;6321236;22;20018;-77
2021/05/23 10:28:10;;;;;;;28.00;2.78;;;17.40;66.00;;;;;;6294619;22;20007;-77
2021/05/23 10:30:46;;;;;;;20.88;3.47;;;17.40;65.80;;;;;;6320956;22;20132;-87
2021/05/23 10:33:12;;;;;;;26.55;3.45;;;17.40;65.70;;;;;;6255451;22;20022;-81
2021/05/23 10:35:43;;;;;;;22.60;3.50;;;17.50;65.30;;;;;;6294238;22;20007;-79
2021/05/23 10:38:11;;;;;;;15.90;2.90;;;17.50;65.00;;;;;;6321342;22;20011;-78
2021/05/23 10:40:49;;;;;;;11.57;2.80;;;17.50;65.00;;;;;;6321700;22;20026;-74
2021/05/23 10:43:21;;;;;;;10.82;2.28;;;17.50;64.70;;;;;;6315974;22;20011;-79
2021/05/23 10:45:47;;;;;;;15.75;2.67;;;17.40;64.50;;;;;;6321199;22;20011;-78
2021/05/23 10:48:16;;;;;;;8.93;2.10;;;17.40;64.30;;;;;;6311296;22;20390;-78
2021/05/23 10:50:44;;;;;;;11.55;2.70;;;17.40;64.20;;;;;;6321252;22;20015;-78
2021/05/23 10:53:10;;;;;;;5.95;1.58;;;17.40;64.30;;;;;;6311188;22;20011;-80
2021/05/23 10:55:51;;;;;;;8.85;2.00;;;17.30;64.20;;;;;;6321237;22;20007;-78
2021/05/23 10:58:23;;;;;;;5.93;1.92;;;17.30;64.10;;;;;;6310811;22;20011;-78
2021/05/23 11:00:53;;;;;;;13.90;2.13;;;17.30;64.10;;;;;;6320895;22;20416;-78
2021/05/23 11:03:20;;;;;;;7.45;2.00;;;17.30;64.10;;;;;;6321001;22;20082;-79
2021/05/23 11:05:47;;;;;;;6.85;1.80;;;17.30;64.20;;;;;;6284434;22;20129;-79
2021/05/23 11:08:14;;;;;;;7.05;1.15;;;17.20;64.10;;;;;;6321377;22;20068;-78
2021/05/23 11:10:48;;;;;;;6.53;1.50;;;17.20;64.70;;;;;;6321670;22;20030;-79
2021/05/23 11:13:30;;;;;;;5.30;1.65;;;17.30;64.10;;;;;;6321349;22;20099;-79
2021/05/23 11:16:17;;;;;;;5.80;1.73;;;17.30;64.10;;;;;;6293937;22;20022;-79
2021/05/23 11:18:44;;;;;;;8.40;1.90;;;17.20;63.90;;;;;;6321291;22;20007;-79
2021/05/23 11:21:14;;;;;;;3.50;1.50;;;17.20;64.00;;;;;;6321041;22;20011;-78
2021/05/23 11:23:47;;;;;;;6.97;1.20;;;17.20;64.00;;;;;;6321115;22;20420;-79
2021/05/23 11:26:15;;;;;;;3.30;1.43;;;17.20;64.00;;;;;;6320940;22;20305;-78
2021/05/23 11:28:57;;;;;;;3.10;1.35;;;17.20;63.90;;;;;;6320797;22;20011;-77
2021/05/23 11:31:29;;;;;;;7.97;1.20;;;17.20;63.70;;;;;;6320979;22;20011;-78
2021/05/23 11:33:56;;;;;;;4.60;1.42;;;17.20;63.80;;;;;;6321005;22;20019;-78
2021/05/23 11:36:25;;;;;;;3.05;1.23;;;17.20;63.70;;;;;;6321678;22;20102;-78
2021/05/23 11:38:57;;;;;;;4.40;1.00;;;17.20;63.70;;;;;;6321324;22;20072;-78
2021/05/23 11:41:50;;;;;;;7.20;1.07;;;17.20;63.60;;;;;;6320547;22;20308;-79
2021/05/23 11:44:17;;;;;;;2.92;1.08;;;17.10;63.30;;;;;;6304070;22;20086;-78
2021/05/23 11:46:50;;;;;;;5.85;1.40;;;17.10;63.50;;;;;;6320575;22;20012;-80
2021/05/23 11:49:20;;;;;;;3.17;1.08;;;17.10;63.40;;;;;;6320848;22;20061;-78
2021/05/23 11:51:47;;;;;;;3.63;1.30;;;17.10;63.40;;;;;;6320425;22;20301;-79
2021/05/23 11:54:13;;;;;;;1.77;0.95;;;17.10;63.50;;;;;;6320491;22;20416;-79
2021/05/23 11:56:40;;;;;;;3.65;0.80;;;17.10;63.40;;;;;;6309671;22;20007;-78
2021/05/23 11:59:08;;;;;;;2.72;0.85;;;17.10;63.40;;;;;;6320552;22;20063;-79
2021/05/23 12:01:36;;;;;;;2.42;0.93;;;17.10;63.50;;;;;;6320119;22;20084;-77
2021/05/23 12:04:12;;;;;;;2.47;1.00;;;17.10;63.40;;;;;;6310028;22;20011;-78
2021/05/23 12:06:39;;;;;;;6.38;1.42;;;17.00;63.40;;;;;;6320411;22;20072;-79
2021/05/23 12:09:13;;;;;;;5.97;1.08;;;17.10;63.40;;;;;;6320609;22;20030;-75
2021/05/23 12:11:45;;;;;;;10.13;1.65;;;17.10;63.20;;;;;;6320788;22;20266;-77
2021/05/23 12:14:33;;;;;;;4.95;1.48;;;17.10;63.00;;;;;;6320720;22;20011;-78
2021/05/23 12:17:10;;;;;;;8.38;2.28;;;17.10;62.80;;;;;;6320031;22;20011;-77
2021/05/23 12:19:57;;;;;;;7.68;1.35;;;17.00;62.70;;;;;;6320252;22;20049;-77
2021/05/23 12:22:38;;;;;;;8.23;1.38;;;17.00;62.20;;;;;;6320949;22;20011;-78
2021/05/23 12:25:04;;;;;;;5.55;0.90;;;17.00;62.60;;;;;;6293476;22;20015;-78
2021/05/23 12:27:32;;;;;;;2.25;0.80;;;17.20;63.20;;;;;;6320223;22;20321;-79
2021/05/23 12:30:12;;;;;;;7.60;1.30;;;17.20;63.20;;;;;;6293063;22;20003;-80
2021/05/23 12:32:57;;;;;;;6.53;1.60;;;17.40;64.00;;;;;;6320361;22;20007;-80
2021/05/23 12:35:36;;;;;;;14.15;1.92;;;17.40;59.20;;;;;;6309903;22;20007;-79
2021/05/23 12:38:13;;;;;;;7.35;1.08;;;17.30;61.50;;;;;;6319788;22;20141;-78
2021/05/23 12:40:47;;;;;;;9.07;1.63;;;17.30;62.90;;;;;;6318271;22;20007;-82
2021/05/23 12:43:14;;;;;;;4.03;0.88;;;17.30;63.80;;;;;;6308571;22;20018;-75
2021/05/23 12:45:43;;;;;;;6.65;1.77;;;17.40;63.80;;;;;;6319113;22;20033;-79
2021/05/23 12:48:11;;;;;;;8.57;1.80;;;17.40;63.40;;;;;;6320081;22;20011;-79
2021/05/23 12:50:44;;;;;;;6.78;1.33;;;17.30;64.50;;;;;;6319844;22;20293;-79
2021/05/23 12:53:10;;;;;;;7.07;1.80;;;17.30;64.80;;;;;;6320271;22;20323;-79